气象报文与情报通波
气象报文机场: NZAA
ADDS - METARS form results

(0316 UTC 21 November 2019)
数据来源 http://aviationweather.gov/metar/data/
 
METAR text: NZAA 210300Z AUTO 22016KT 9999 NCD 18/09 Q1019 NOSIG
Conditions at: NZAA (AUCKLAND INTL AR, NZ) observed 0300 UTC 21 November 2019
Temperature: 18.0°C (64°F)
Dewpoint: 9.0°C (48°F) [RH = 56%]
Pressure (altimeter): 30.09 inches Hg (1019.0 mb)
Winds: from the SW (220 degrees) at 18 MPH (16 knots; 8.2 m/s)
Visibility: 6 or more miles (10+ km)
Ceiling: at least 12,000 feet AGL
Clouds: sky clear below 12,000 feet AGL
Weather: no significant weather observed at this time

METAR text: NZAA 210230Z AUTO 21016KT 9999 NCD 18/09 Q1019 NOSIG
Conditions at: NZAA (AUCKLAND INTL AR, NZ) observed 0230 UTC 21 November 2019
Temperature: 18.0°C (64°F)
Dewpoint: 9.0°C (48°F) [RH = 56%]
Pressure (altimeter): 30.09 inches Hg (1019.0 mb)
Winds: from the SSW (210 degrees) at 18 MPH (16 knots; 8.2 m/s)
Visibility: 6 or more miles (10+ km)
Ceiling: at least 12,000 feet AGL
Clouds: sky clear below 12,000 feet AGL
Weather: no significant weather observed at this time

Forecast for: NZAA (AUCKLAND INTL AR, NZ)
Text: TAF NZAA 202302Z 2100/2200 22015KT 9999 FEW030
Forecast period: 0000 to 1400 UTC 21 November 2019
Forecast type: FROM: standard forecast or significant change
Winds: from the SW (220 degrees) at 17 MPH (15 knots; 7.7 m/s)
Visibility: 6 or more miles 10+ km)
Ceiling: at least 12,000 feet AGL
Clouds: few clouds at 3000 feet AGL
Weather: no significant weather forecast for this period
Text: BECMG 2114/2116 16008KT
Forecast period: 1400 to 1900 UTC 21 November 2019
Forecast type: BECOMING: Conditions expected to become as follows by 1600 UTC 21 November 2019
Winds: from the SSE (160 degrees) at 9 MPH (8 knots; 4.1 m/s)
Visibility: 6 or more miles 10+ km)
Ceiling: at least 12,000 feet AGL
Clouds: few clouds at 3000 feet AGL
Weather: no significant weather forecast for this period
Text: BECMG 2119/2121 22015KT
Forecast period: 1900 UTC 21 November 2019 to 0000 UTC 22 November 2019
Forecast type: BECOMING: Conditions expected to become as follows by 2100 UTC 21 November 2019
Winds: from the SW (220 degrees) at 17 MPH (15 knots; 7.7 m/s)
Visibility: 6 or more miles 10+ km)
Ceiling: at least 12,000 feet AGL
Clouds: few clouds at 3000 feet AGL
Weather: no significant weather forecast for this period

 机场地图

 跑道信息
跑道 05L 跑道长度 10197 ft 跑道宽度 148 ft
跑道标高 15 ft 跑道內移距离 1148 ft 跑道磁航向 71
跑道 23R 跑道长度 10197 ft 跑道宽度 148 ft
跑道标高 22 ft 跑道內移距离 1542 ft 跑道磁航向 251
跑道 05R 跑道长度 11926 ft 跑道宽度 148 ft
跑道标高 15 ft 跑道內移距离 1125 ft 跑道磁航向 72
跑道 23L 跑道长度 11926 ft 跑道宽度 148 ft
跑道标高 23 ft 跑道內移距离 0 ft 跑道磁航向 252

 机场频率
类型 APP 名称 APP 频率 124.3 MHZ
类型 ATIS 名称 ATIS 频率 127.8 MHZ
类型 CLD 名称 CLNC DEL 频率 128.2 MHZ
类型 GND 名称 GND 频率 121.9 MHZ
类型 TWR 名称 TWR 频率 118.7 MHZ

 机场附近导航设备
类型 VOR-DME 名称 Auckland 频率 114800 KHZ
类型 NDB 名称 Whitford 频率 334 KHZ
类型 NDB 名称 Westpoint 频率 398 KHZ



© FlySim.cn中国最大航空飞行视频网版权所有